Time,TemperatureF,DewpointF,PressureIn,WindDirection,WindDirectionDegrees,WindSpeedMPH,WindSpeedGustMPH,Humidity,HourlyPrecipIn,Conditions,Clouds,dailyrainin,SolarRadiationWatts/m^2,SoftwareType,DateUTC
2013-08-08 00:01:00,79.0,76.0,-100.00,East,90,0.0,5.0,91,0.00,,,0.01,0.000000,,2013-08-08 04:01:00,
2013-08-08 00:11:00,79.0,76.0,-100.00,East,90,0.0,5.0,91,0.00,,,0.01,0.000000,,2013-08-08 04:11:00,
2013-08-08 00:44:00,80.0,75.0,-100.00,East,92,5.0,9.0,86,0.00,,,0.01,0.000000,,2013-08-08 04:44:00,
2013-08-08 00:53:00,80.0,75.0,-100.00,East,92,5.0,9.0,86,0.00,,,0.01,0.000000,,2013-08-08 04:53:00,
2013-08-08 01:02:00,80.0,75.0,-100.00,East,92,5.0,9.0,86,0.00,,,0.01,0.000000,,2013-08-08 05:02:00,
2013-08-08 01:11:00,80.0,75.0,-100.00,East,92,5.0,9.0,86,0.00,,,0.01,0.000000,,2013-08-08 05:11:00,
2013-08-08 01:43:00,79.0,75.0,-100.00,ESE,107,4.0,8.0,87,0.00,,,0.01,0.000000,,2013-08-08 05:43:00,
2013-08-08 01:52:00,79.0,75.0,-100.00,ESE,107,4.0,8.0,87,0.00,,,0.01,0.000000,,2013-08-08 05:52:00,
2013-08-08 02:01:00,79.0,75.0,-100.00,ESE,107,4.0,8.0,87,0.00,,,0.01,0.000000,,2013-08-08 06:01:00,
2013-08-08 02:12:00,79.0,75.0,-100.00,ESE,107,4.0,8.0,87,0.00,,,0.01,0.000000,,2013-08-08 06:12:00,
2013-08-08 02:43:00,79.0,74.0,-100.00,ESE,104,5.0,8.0,86,0.00,,,0.01,0.000000,,2013-08-08 06:43:00,
2013-08-08 02:52:00,79.0,74.0,-100.00,ESE,104,5.0,8.0,86,0.00,,,0.01,0.000000,,2013-08-08 06:52:00,
2013-08-08 03:02:00,79.0,74.0,-100.00,ESE,104,5.0,8.0,86,0.00,,,0.01,0.000000,,2013-08-08 07:02:00,
2013-08-08 03:12:00,79.0,74.0,-100.00,ESE,104,5.0,8.0,86,0.00,,,0.01,0.000000,,2013-08-08 07:12:00,
2013-08-08 03:43:00,79.0,75.0,-100.00,ESE,112,3.0,7.0,88,0.00,,,0.01,0.000000,,2013-08-08 07:43:00,
2013-08-08 03:53:00,79.0,75.0,-100.00,ESE,112,3.0,7.0,88,0.00,,,0.01,0.000000,,2013-08-08 07:53:00,
2013-08-08 04:02:00,79.0,75.0,-100.00,ESE,112,3.0,7.0,88,0.00,,,0.01,0.000000,,2013-08-08 08:02:00,
2013-08-08 04:11:00,79.0,75.0,-100.00,ESE,112,3.0,7.0,88,0.00,,,0.01,0.000000,,2013-08-08 08:11:00,
2013-08-08 04:43:00,79.0,75.0,-100.00,East,98,4.0,7.0,89,0.00,,,0.01,0.000000,,2013-08-08 08:43:00,
2013-08-08 04:53:00,79.0,75.0,-100.00,East,98,4.0,7.0,89,0.00,,,0.01,0.000000,,2013-08-08 08:53:00,
2013-08-08 05:02:00,79.0,75.0,-100.00,East,98,4.0,7.0,89,0.00,,,0.01,0.000000,,2013-08-08 09:02:00,
2013-08-08 05:12:00,79.0,75.0,-100.00,East,98,4.0,7.0,89,0.00,,,0.01,0.000000,,2013-08-08 09:12:00,
2013-08-08 05:43:00,79.0,75.0,-100.00,ESE,104,4.0,10.0,89,0.00,,,0.01,0.000000,,2013-08-08 09:43:00,
2013-08-08 05:53:00,79.0,75.0,-100.00,ESE,104,4.0,10.0,89,0.00,,,0.01,0.000000,,2013-08-08 09:53:00,
2013-08-08 06:01:00,79.0,75.0,-100.00,ESE,104,4.0,10.0,89,0.00,,,0.01,0.000000,,2013-08-08 10:01:00,
2013-08-08 06:12:00,79.0,75.0,-100.00,ESE,104,4.0,10.0,89,0.00,,,0.01,0.000000,,2013-08-08 10:12:00,
2013-08-08 06:43:00,79.0,75.0,-100.00,ESE,103,4.0,8.0,89,0.00,,,0.01,0.000000,,2013-08-08 10:43:00,
2013-08-08 06:52:00,79.0,75.0,-100.00,ESE,103,4.0,8.0,89,0.00,,,0.01,0.000000,,2013-08-08 10:52:00,
2013-08-08 07:02:00,79.0,75.0,-100.00,ESE,103,4.0,8.0,89,0.00,,,0.01,0.000000,,2013-08-08 11:02:00,
2013-08-08 07:11:00,79.0,75.0,-100.00,ESE,103,4.0,8.0,89,0.00,,,0.01,0.000000,,2013-08-08 11:11:00,
2013-08-08 07:43:00,79.0,76.0,-100.00,ESE,102,5.0,10.0,90,0.00,,,0.01,3.000000,,2013-08-08 11:43:00,
2013-08-08 07:52:00,79.0,76.0,-100.00,ESE,102,5.0,10.0,90,0.00,,,0.01,3.000000,,2013-08-08 11:52:00,
2013-08-08 08:01:00,79.0,76.0,-100.00,ESE,102,5.0,10.0,90,0.00,,,0.01,3.000000,,2013-08-08 12:01:00,
2013-08-08 08:11:00,79.0,76.0,-100.00,ESE,102,5.0,10.0,90,0.00,,,0.01,3.000000,,2013-08-08 12:11:00,
2013-08-08 08:43:00,83.0,77.0,-100.00,ESE,104,4.0,10.0,82,0.00,,,0.01,91.000000,,2013-08-08 12:43:00,
2013-08-08 08:53:00,83.0,77.0,-100.00,ESE,104,4.0,10.0,82,0.00,,,0.01,91.000000,,2013-08-08 12:53:00,
2013-08-08 09:01:00,83.0,77.0,-100.00,ESE,104,4.0,10.0,82,0.00,,,0.01,91.000000,,2013-08-08 13:01:00,
2013-08-08 09:12:00,83.0,77.0,-100.00,ESE,104,4.0,10.0,82,0.00,,,0.01,91.000000,,2013-08-08 13:12:00,
2013-08-08 09:43:00,85.0,76.0,-100.00,ESE,118,7.0,17.0,74,0.00,,,0.01,245.000000,,2013-08-08 13:43:00,
2013-08-08 09:53:00,85.0,76.0,-100.00,ESE,118,7.0,17.0,74,0.00,,,0.01,245.000000,,2013-08-08 13:53:00,
2013-08-08 10:02:00,85.0,76.0,-100.00,ESE,118,7.0,17.0,74,0.00,,,0.01,245.000000,,2013-08-08 14:02:00,
2013-08-08 10:11:00,85.0,76.0,-100.00,ESE,118,7.0,17.0,74,0.00,,,0.01,245.000000,,2013-08-08 14:11:00,
2013-08-08 10:43:00,86.0,75.0,-100.00,SE,126,8.0,17.0,69,0.00,,,0.01,379.000000,,2013-08-08 14:43:00,
2013-08-08 10:53:00,86.0,75.0,-100.00,SE,126,8.0,17.0,69,0.00,,,0.01,379.000000,,2013-08-08 14:53:00,
2013-08-08 11:02:00,86.0,75.0,-100.00,SE,126,8.0,17.0,69,0.00,,,0.01,379.000000,,2013-08-08 15:02:00,
2013-08-08 11:12:00,86.0,75.0,-100.00,SE,126,8.0,17.0,69,0.00,,,0.01,379.000000,,2013-08-08 15:12:00,
2013-08-08 11:43:00,87.0,75.0,-100.00,SE,126,9.0,17.0,67,0.00,,,0.01,513.000000,,2013-08-08 15:43:00,
2013-08-08 11:53:00,87.0,75.0,-100.00,SE,126,9.0,17.0,67,0.00,,,0.01,513.000000,,2013-08-08 15:53:00,
2013-08-08 12:02:00,87.0,75.0,-100.00,SE,126,9.0,17.0,67,0.00,,,0.01,513.000000,,2013-08-08 16:02:00,
2013-08-08 12:11:00,87.0,75.0,-100.00,SE,126,9.0,17.0,67,0.00,,,0.01,513.000000,,2013-08-08 16:11:00,
2013-08-08 12:42:00,89.0,74.0,-100.00,SE,135,8.0,15.0,61,0.00,,,0.01,633.000000,,2013-08-08 16:42:00,
2013-08-08 12:52:00,89.0,74.0,-100.00,SE,135,8.0,15.0,61,0.00,,,0.01,633.000000,,2013-08-08 16:52:00,
2013-08-08 13:02:00,89.0,74.0,-100.00,SE,135,8.0,15.0,61,0.00,,,0.01,633.000000,,2013-08-08 17:02:00,
2013-08-08 13:11:00,89.0,74.0,-100.00,SE,135,8.0,15.0,61,0.00,,,0.01,633.000000,,2013-08-08 17:11:00,
2013-08-08 13:43:00,90.0,74.0,-100.00,SSE,155,7.0,14.0,59,0.00,,,0.01,746.000000,,2013-08-08 17:43:00,
2013-08-08 13:52:00,90.0,74.0,-100.00,SSE,155,7.0,14.0,59,0.00,,,0.01,746.000000,,2013-08-08 17:52:00,
2013-08-08 14:02:00,90.0,74.0,-100.00,SSE,155,7.0,14.0,59,0.00,,,0.01,746.000000,,2013-08-08 18:02:00,
2013-08-08 14:11:00,90.0,74.0,-100.00,SSE,155,7.0,14.0,59,0.00,,,0.01,746.000000,,2013-08-08 18:11:00,
2013-08-08 14:43:00,90.0,74.0,-100.00,SSW,212,5.0,11.0,59,0.00,,,0.01,753.000000,,2013-08-08 18:43:00,
2013-08-08 14:53:00,90.0,74.0,-100.00,SSW,212,5.0,11.0,59,0.00,,,0.01,753.000000,,2013-08-08 18:53:00,
2013-08-08 15:01:00,90.0,74.0,-100.00,SSW,212,5.0,11.0,59,0.00,,,0.01,753.000000,,2013-08-08 19:01:00,
2013-08-08 15:12:00,90.0,74.0,-100.00,SSW,212,5.0,11.0,59,0.00,,,0.01,753.000000,,2013-08-08 19:12:00,
2013-08-08 15:43:00,91.0,75.0,-100.00,SW,217,4.0,9.0,59,0.00,,,0.01,727.000000,,2013-08-08 19:43:00,
2013-08-08 15:59:00,91.0,75.0,-100.00,SW,217,4.0,9.0,59,0.00,,,0.01,727.000000,,2013-08-08 19:59:00,
2013-08-08 16:11:00,91.0,75.0,-100.00,SW,217,4.0,9.0,59,0.00,,,0.01,727.000000,,2013-08-08 20:11:00,
2013-08-08 16:42:00,87.0,75.0,-100.00,SW,217,5.0,12.0,68,0.00,,,0.01,317.000000,,2013-08-08 20:42:00,
2013-08-08 16:53:00,87.0,75.0,-100.00,SW,217,5.0,12.0,68,0.00,,,0.01,317.000000,,2013-08-08 20:53:00,
2013-08-08 17:01:00,87.0,75.0,-100.00,SW,217,5.0,12.0,68,0.00,,,0.01,317.000000,,2013-08-08 21:01:00,
2013-08-08 17:14:00,87.0,75.0,-100.00,SW,217,5.0,12.0,68,0.00,,,0.01,317.000000,,2013-08-08 21:14:00,
2013-08-08 17:46:00,84.0,76.0,-100.00,SSE,154,0.0,9.0,78,0.03,,,0.04,75.000000,,2013-08-08 21:46:00,
2013-08-08 17:57:00,84.0,76.0,-100.00,SSE,154,0.0,9.0,78,0.03,,,0.04,75.000000,,2013-08-08 21:57:00,
2013-08-08 18:05:00,84.0,76.0,-100.00,SSE,154,0.0,9.0,78,0.03,,,0.04,75.000000,,2013-08-08 22:05:00,
2013-08-08 18:16:00,84.0,76.0,-100.00,SSE,154,0.0,9.0,78,0.03,,,0.04,75.000000,,2013-08-08 22:16:00,
2013-08-08 18:49:00,75.0,73.0,-100.00,North,4,2.0,28.0,93,0.75,,,-99.99,40.000000,,2013-08-08 22:49:00,
2013-08-08 18:58:00,75.0,73.0,-100.00,North,4,2.0,28.0,93,0.75,,,-99.99,40.000000,,2013-08-08 22:58:00,
2013-08-08 19:14:00,75.0,73.0,-100.00,North,4,2.0,28.0,93,0.75,,,-99.99,40.000000,,2013-08-08 23:14:00,
2013-08-08 19:50:00,77.0,75.0,-100.00,North,353,0.0,7.0,93,0.08,,,0.87,58.000000,,2013-08-08 23:50:00,
2013-08-08 19:57:00,77.0,75.0,-100.00,North,353,0.0,7.0,93,0.08,,,0.87,58.000000,,2013-08-08 23:57:00,
2013-08-08 20:05:00,77.0,75.0,-100.00,North,353,0.0,7.0,93,0.08,,,0.87,58.000000,,2013-08-09 00:05:00,
2013-08-08 20:48:00,77.0,74.0,-100.00,ESE,118,3.0,9.0,90,0.00,,,0.87,53.000000,,2013-08-09 00:48:00,
2013-08-08 20:57:00,77.0,74.0,-100.00,ESE,118,3.0,9.0,90,0.00,,,0.87,53.000000,,2013-08-09 00:57:00,
2013-08-08 21:03:00,77.0,74.0,-100.00,ESE,118,3.0,9.0,90,0.00,,,0.87,53.000000,,2013-08-09 01:03:00,
2013-08-08 21:15:00,77.0,74.0,-100.00,ESE,118,3.0,9.0,90,0.00,,,0.87,53.000000,,2013-08-09 01:15:00,
2013-08-08 22:00:00,76.0,73.0,-100.00,ESE,106,0.0,7.0,91,0.00,,,0.86,0.000000,,2013-08-09 02:00:00,
2013-08-08 22:14:00,76.0,73.0,-100.00,ESE,106,0.0,7.0,91,0.00,,,0.86,0.000000,,2013-08-09 02:14:00,
2013-08-08 22:47:00,75.0,73.0,-100.00,NNE,27,0.0,3.0,93,0.00,,,0.86,0.000000,,2013-08-09 02:47:00,
2013-08-08 22:57:00,75.0,73.0,-100.00,NNE,27,0.0,3.0,93,0.00,,,0.86,0.000000,,2013-08-09 02:57:00,
2013-08-08 23:07:00,75.0,73.0,-100.00,NNE,27,0.0,3.0,93,0.00,,,0.86,0.000000,,2013-08-09 03:07:00,
2013-08-08 23:15:00,75.0,73.0,-100.00,NNE,27,0.0,3.0,93,0.00,,,0.86,0.000000,,2013-08-09 03:15:00,
2013-08-08 23:47:00,75.0,73.0,-100.00,ENE,73,0.0,0.0,94,0.00,,,0.86,0.000000,,2013-08-09 03:47:00,
2013-08-08 23:56:00,75.0,73.0,-100.00,ENE,73,0.0,0.0,94,0.00,,,0.86,0.000000,,2013-08-09 03:56:00,